sensor_id;sensor_type;location;lat;lon;timestamp;P1;durP1;ratioP1;P2;durP2;ratioP2
16775;SDS011;8505;49.456;8.164;2022-10-03T00:00:10;10.13;;;4.77;;
16775;SDS011;8505;49.456;8.164;2022-10-03T00:05:51;9.77;;;4.93;;
16775;SDS011;8505;49.456;8.164;2022-10-03T00:08:35;13.10;;;5.23;;
16775;SDS011;8505;49.456;8.164;2022-10-03T00:11:24;8.50;;;4.73;;
16775;SDS011;8505;49.456;8.164;2022-10-03T00:13:59;12.40;;;4.60;;
16775;SDS011;8505;49.456;8.164;2022-10-03T00:16:35;11.20;;;4.80;;
16775;SDS011;8505;49.456;8.164;2022-10-03T00:19:12;11.87;;;5.13;;
16775;SDS011;8505;49.456;8.164;2022-10-03T00:21:52;10.50;;;4.77;;
16775;SDS011;8505;49.456;8.164;2022-10-03T00:24:33;9.10;;;4.80;;
16775;SDS011;8505;49.456;8.164;2022-10-03T00:27:13;12.00;;;5.43;;
16775;SDS011;8505;49.456;8.164;2022-10-03T00:29:55;10.73;;;4.90;;
16775;SDS011;8505;49.456;8.164;2022-10-03T00:32:35;11.33;;;5.27;;
16775;SDS011;8505;49.456;8.164;2022-10-03T00:35:19;12.23;;;4.67;;
16775;SDS011;8505;49.456;8.164;2022-10-03T00:41:19;12.80;;;5.20;;
16775;SDS011;8505;49.456;8.164;2022-10-03T00:44:09;9.07;;;5.20;;
16775;SDS011;8505;49.456;8.164;2022-10-03T00:50:12;11.77;;;5.00;;
16775;SDS011;8505;49.456;8.164;2022-10-03T00:52:54;10.90;;;5.00;;
16775;SDS011;8505;49.456;8.164;2022-10-03T00:55:34;17.33;;;5.47;;
16775;SDS011;8505;49.456;8.164;2022-10-03T00:58:26;15.93;;;5.73;;
16775;SDS011;8505;49.456;8.164;2022-10-03T01:01:18;10.10;;;5.50;;
16775;SDS011;8505;49.456;8.164;2022-10-03T01:03:53;9.63;;;5.20;;
16775;SDS011;8505;49.456;8.164;2022-10-03T01:06:32;11.67;;;4.93;;
16775;SDS011;8505;49.456;8.164;2022-10-03T01:09:12;12.00;;;5.77;;
16775;SDS011;8505;49.456;8.164;2022-10-03T01:11:58;13.87;;;5.13;;
16775;SDS011;8505;49.456;8.164;2022-10-03T01:14:46;14.93;;;5.37;;
16775;SDS011;8505;49.456;8.164;2022-10-03T01:17:28;12.03;;;5.87;;
16775;SDS011;8505;49.456;8.164;2022-10-03T01:20:09;15.67;;;5.40;;
16775;SDS011;8505;49.456;8.164;2022-10-03T01:22:53;16.70;;;6.50;;
16775;SDS011;8505;49.456;8.164;2022-10-03T01:25:38;17.20;;;6.47;;
16775;SDS011;8505;49.456;8.164;2022-10-03T01:28:28;15.43;;;5.93;;
16775;SDS011;8505;49.456;8.164;2022-10-03T01:31:27;13.47;;;6.10;;
16775;SDS011;8505;49.456;8.164;2022-10-03T01:34:03;17.87;;;6.17;;
16775;SDS011;8505;49.456;8.164;2022-10-03T01:36:37;12.40;;;5.93;;
16775;SDS011;8505;49.456;8.164;2022-10-03T01:39:12;14.17;;;6.23;;
16775;SDS011;8505;49.456;8.164;2022-10-03T01:41:47;14.00;;;6.10;;
16775;SDS011;8505;49.456;8.164;2022-10-03T01:44:20;16.90;;;6.37;;
16775;SDS011;8505;49.456;8.164;2022-10-03T01:46:54;15.57;;;6.43;;
16775;SDS011;8505;49.456;8.164;2022-10-03T01:49:33;11.83;;;5.47;;
16775;SDS011;8505;49.456;8.164;2022-10-03T01:52:08;16.43;;;5.87;;
16775;SDS011;8505;49.456;8.164;2022-10-03T01:54:42;13.83;;;5.50;;
16775;SDS011;8505;49.456;8.164;2022-10-03T01:57:17;15.60;;;5.80;;
16775;SDS011;8505;49.456;8.164;2022-10-03T01:59:53;12.33;;;5.60;;
16775;SDS011;8505;49.456;8.164;2022-10-03T02:02:27;15.60;;;6.03;;
16775;SDS011;8505;49.456;8.164;2022-10-03T02:05:03;10.83;;;5.53;;
16775;SDS011;8505;49.456;8.164;2022-10-03T02:07:39;10.97;;;5.40;;
16775;SDS011;8505;49.456;8.164;2022-10-03T02:10:19;10.57;;;5.77;;
16775;SDS011;8505;49.456;8.164;2022-10-03T02:12:57;11.73;;;5.67;;
16775;SDS011;8505;49.456;8.164;2022-10-03T02:15:33;11.70;;;5.90;;
16775;SDS011;8505;49.456;8.164;2022-10-03T02:18:13;14.03;;;5.03;;
16775;SDS011;8505;49.456;8.164;2022-10-03T02:20:49;15.90;;;5.37;;
16775;SDS011;8505;49.456;8.164;2022-10-03T02:23:24;16.90;;;6.73;;
16775;SDS011;8505;49.456;8.164;2022-10-03T02:26:13;10.77;;;5.70;;
16775;SDS011;8505;49.456;8.164;2022-10-03T02:29:37;10.47;;;5.83;;
16775;SDS011;8505;49.456;8.164;2022-10-03T02:32:37;12.90;;;5.77;;
16775;SDS011;8505;49.456;8.164;2022-10-03T02:35:46;10.67;;;5.07;;
16775;SDS011;8505;49.456;8.164;2022-10-03T02:38:35;12.27;;;5.53;;
16775;SDS011;8505;49.456;8.164;2022-10-03T02:41:19;15.07;;;6.47;;
16775;SDS011;8505;49.456;8.164;2022-10-03T02:44:15;16.13;;;6.10;;
16775;SDS011;8505;49.456;8.164;2022-10-03T03:02:08;11.77;;;6.30;;
16775;SDS011;8505;49.456;8.164;2022-10-03T03:05:07;13.80;;;6.80;;
16775;SDS011;8505;49.456;8.164;2022-10-03T03:08:07;14.77;;;5.87;;
16775;SDS011;8505;49.456;8.164;2022-10-03T03:11:01;15.37;;;5.73;;
16775;SDS011;8505;49.456;8.164;2022-10-03T03:13:50;11.73;;;6.27;;
16775;SDS011;8505;49.456;8.164;2022-10-03T03:16:39;13.33;;;6.50;;
16775;SDS011;8505;49.456;8.164;2022-10-03T03:19:25;16.27;;;6.13;;
16775;SDS011;8505;49.456;8.164;2022-10-03T03:22:02;11.60;;;6.13;;
16775;SDS011;8505;49.456;8.164;2022-10-03T03:24:41;14.27;;;6.53;;
16775;SDS011;8505;49.456;8.164;2022-10-03T03:30:15;14.87;;;6.27;;
16775;SDS011;8505;49.456;8.164;2022-10-03T03:32:55;15.63;;;6.70;;
16775;SDS011;8505;49.456;8.164;2022-10-03T03:35:36;11.50;;;6.37;;
16775;SDS011;8505;49.456;8.164;2022-10-03T03:38:17;16.27;;;6.37;;
16775;SDS011;8505;49.456;8.164;2022-10-03T03:40:55;11.70;;;5.70;;
16775;SDS011;8505;49.456;8.164;2022-10-03T03:43:44;12.83;;;6.30;;
16775;SDS011;8505;49.456;8.164;2022-10-03T03:46:29;13.27;;;6.20;;
16775;SDS011;8505;49.456;8.164;2022-10-03T03:49:19;15.20;;;6.77;;
16775;SDS011;8505;49.456;8.164;2022-10-03T03:52:03;12.50;;;6.60;;
16775;SDS011;8505;49.456;8.164;2022-10-03T03:54:53;16.50;;;6.50;;
16775;SDS011;8505;49.456;8.164;2022-10-03T03:57:41;13.37;;;6.47;;
16775;SDS011;8505;49.456;8.164;2022-10-03T04:00:20;18.43;;;7.37;;
16775;SDS011;8505;49.456;8.164;2022-10-03T04:03:15;16.20;;;6.17;;
16775;SDS011;8505;49.456;8.164;2022-10-03T04:09:10;12.07;;;5.60;;
16775;SDS011;8505;49.456;8.164;2022-10-03T04:11:53;17.03;;;6.93;;
16775;SDS011;8505;49.456;8.164;2022-10-03T04:14:38;12.20;;;6.83;;
16775;SDS011;8505;49.456;8.164;2022-10-03T04:17:31;16.40;;;6.97;;
16775;SDS011;8505;49.456;8.164;2022-10-03T04:20:32;12.73;;;6.67;;
16775;SDS011;8505;49.456;8.164;2022-10-03T04:23:18;13.67;;;6.37;;
16775;SDS011;8505;49.456;8.164;2022-10-03T04:26:15;14.90;;;6.83;;
16775;SDS011;8505;49.456;8.164;2022-10-03T04:29:03;15.17;;;6.83;;
16775;SDS011;8505;49.456;8.164;2022-10-03T04:31:54;15.53;;;7.67;;
16775;SDS011;8505;49.456;8.164;2022-10-03T04:34:35;15.60;;;6.67;;
16775;SDS011;8505;49.456;8.164;2022-10-03T04:37:20;14.10;;;6.97;;
16775;SDS011;8505;49.456;8.164;2022-10-03T04:39:56;17.13;;;6.30;;
16775;SDS011;8505;49.456;8.164;2022-10-03T04:42:40;18.00;;;7.17;;
16775;SDS011;8505;49.456;8.164;2022-10-03T04:45:18;16.40;;;7.20;;
16775;SDS011;8505;49.456;8.164;2022-10-03T04:47:55;14.93;;;6.83;;
16775;SDS011;8505;49.456;8.164;2022-10-03T04:50:34;15.00;;;7.30;;
16775;SDS011;8505;49.456;8.164;2022-10-03T04:53:20;15.37;;;6.37;;
16775;SDS011;8505;49.456;8.164;2022-10-03T04:56:10;12.70;;;5.70;;
16775;SDS011;8505;49.456;8.164;2022-10-03T04:58:49;13.67;;;6.50;;
16775;SDS011;8505;49.456;8.164;2022-10-03T05:01:31;14.77;;;7.13;;
16775;SDS011;8505;49.456;8.164;2022-10-03T05:04:05;17.73;;;6.47;;
16775;SDS011;8505;49.456;8.164;2022-10-03T05:06:47;14.90;;;7.27;;
16775;SDS011;8505;49.456;8.164;2022-10-03T05:09:26;13.20;;;6.77;;
16775;SDS011;8505;49.456;8.164;2022-10-03T05:12:01;14.07;;;6.90;;
16775;SDS011;8505;49.456;8.164;2022-10-03T05:14:51;16.90;;;6.47;;
16775;SDS011;8505;49.456;8.164;2022-10-03T05:17:35;18.80;;;6.83;;
16775;SDS011;8505;49.456;8.164;2022-10-03T05:20:21;12.60;;;6.27;;
16775;SDS011;8505;49.456;8.164;2022-10-03T05:23:03;12.27;;;6.67;;
16775;SDS011;8505;49.456;8.164;2022-10-03T05:25:43;16.17;;;7.17;;
16775;SDS011;8505;49.456;8.164;2022-10-03T05:28:23;16.30;;;6.93;;
16775;SDS011;8505;49.456;8.164;2022-10-03T05:31:00;13.63;;;6.87;;
16775;SDS011;8505;49.456;8.164;2022-10-03T05:33:39;15.77;;;7.37;;
16775;SDS011;8505;49.456;8.164;2022-10-03T05:36:15;14.17;;;6.50;;
16775;SDS011;8505;49.456;8.164;2022-10-03T05:41:53;19.03;;;7.53;;
16775;SDS011;8505;49.456;8.164;2022-10-03T05:44:50;19.90;;;7.13;;
16775;SDS011;8505;49.456;8.164;2022-10-03T05:47:29;16.87;;;7.07;;
16775;SDS011;8505;49.456;8.164;2022-10-03T05:50:14;13.30;;;6.40;;
16775;SDS011;8505;49.456;8.164;2022-10-03T05:53:05;16.73;;;6.77;;
16775;SDS011;8505;49.456;8.164;2022-10-03T05:55:47;15.40;;;6.80;;
16775;SDS011;8505;49.456;8.164;2022-10-03T06:01:46;16.87;;;6.93;;
16775;SDS011;8505;49.456;8.164;2022-10-03T06:04:33;16.70;;;6.67;;
16775;SDS011;8505;49.456;8.164;2022-10-03T06:07:17;12.33;;;7.00;;
16775;SDS011;8505;49.456;8.164;2022-10-03T06:09:54;14.47;;;6.70;;
16775;SDS011;8505;49.456;8.164;2022-10-03T06:13:05;14.40;;;6.90;;
16775;SDS011;8505;49.456;8.164;2022-10-03T06:15:57;15.33;;;7.00;;
16775;SDS011;8505;49.456;8.164;2022-10-03T06:18:49;14.10;;;7.20;;
16775;SDS011;8505;49.456;8.164;2022-10-03T06:28:06;15.43;;;6.67;;
16775;SDS011;8505;49.456;8.164;2022-10-03T06:30:55;14.70;;;7.03;;
16775;SDS011;8505;49.456;8.164;2022-10-03T06:34:08;15.80;;;7.00;;
16775;SDS011;8505;49.456;8.164;2022-10-03T06:40:11;18.57;;;7.23;;
16775;SDS011;8505;49.456;8.164;2022-10-03T06:43:15;12.80;;;6.20;;
16775;SDS011;8505;49.456;8.164;2022-10-03T06:46:36;13.90;;;6.63;;
16775;SDS011;8505;49.456;8.164;2022-10-03T06:49:20;12.37;;;6.27;;
16775;SDS011;8505;49.456;8.164;2022-10-03T06:52:01;14.50;;;6.40;;
16775;SDS011;8505;49.456;8.164;2022-10-03T06:55:00;13.67;;;6.10;;
16775;SDS011;8505;49.456;8.164;2022-10-03T06:57:47;13.60;;;6.40;;
16775;SDS011;8505;49.456;8.164;2022-10-03T07:00:44;17.47;;;6.53;;
16775;SDS011;8505;49.456;8.164;2022-10-03T07:13:02;12.70;;;6.57;;
16775;SDS011;8505;49.456;8.164;2022-10-03T07:19:03;14.97;;;6.27;;
16775;SDS011;8505;49.456;8.164;2022-10-03T07:22:01;14.17;;;6.50;;
16775;SDS011;8505;49.456;8.164;2022-10-03T07:31:00;18.03;;;6.70;;
16775;SDS011;8505;49.456;8.164;2022-10-03T07:37:01;10.13;;;5.67;;
16775;SDS011;8505;49.456;8.164;2022-10-03T07:40:23;14.93;;;5.90;;
16775;SDS011;8505;49.456;8.164;2022-10-03T07:46:48;12.13;;;4.70;;
16775;SDS011;8505;49.456;8.164;2022-10-03T07:52:38;10.03;;;4.90;;
16775;SDS011;8505;49.456;8.164;2022-10-03T07:58:23;13.63;;;5.13;;
16775;SDS011;8505;49.456;8.164;2022-10-03T08:01:13;11.40;;;5.43;;
16775;SDS011;8505;49.456;8.164;2022-10-03T08:07:03;14.20;;;6.07;;
16775;SDS011;8505;49.456;8.164;2022-10-03T08:12:51;22.80;;;12.13;;
16775;SDS011;8505;49.456;8.164;2022-10-03T08:15:45;15.75;;;5.78;;
16775;SDS011;8505;49.456;8.164;2022-10-03T08:18:30;11.70;;;4.20;;
16775;SDS011;8505;49.456;8.164;2022-10-03T08:21:17;12.73;;;4.07;;
16775;SDS011;8505;49.456;8.164;2022-10-03T08:27:02;10.88;;;3.83;;
16775;SDS011;8505;49.456;8.164;2022-10-03T08:29:51;10.40;;;4.00;;
16775;SDS011;8505;49.456;8.164;2022-10-03T08:39:01;10.38;;;3.35;;
16775;SDS011;8505;49.456;8.164;2022-10-03T08:44:58;9.27;;;3.25;;
16775;SDS011;8505;49.456;8.164;2022-10-03T08:50:49;8.10;;;2.10;;
16775;SDS011;8505;49.456;8.164;2022-10-03T08:53:40;8.95;;;2.30;;
16775;SDS011;8505;49.456;8.164;2022-10-03T08:56:21;8.57;;;2.65;;
16775;SDS011;8505;49.456;8.164;2022-10-03T08:59:00;7.85;;;2.28;;
16775;SDS011;8505;49.456;8.164;2022-10-03T10:24:16;6.93;;;2.10;;
16775;SDS011;8505;49.456;8.164;2022-10-03T10:27:08;6.03;;;2.05;;
16775;SDS011;8505;49.456;8.164;2022-10-03T10:33:12;7.47;;;2.30;;
16775;SDS011;8505;49.456;8.164;2022-10-03T10:45:53;7.53;;;2.38;;
16775;SDS011;8505;49.456;8.164;2022-10-03T10:51:57;9.25;;;3.00;;
16775;SDS011;8505;49.456;8.164;2022-10-03T10:58:10;9.43;;;2.70;;
16775;SDS011;8505;49.456;8.164;2022-10-03T11:04:30;8.85;;;2.50;;
16775;SDS011;8505;49.456;8.164;2022-10-03T11:10:36;10.38;;;2.58;;
16775;SDS011;8505;49.456;8.164;2022-10-03T11:13:27;7.38;;;2.47;;
16775;SDS011;8505;49.456;8.164;2022-10-03T11:16:49;9.02;;;2.70;;
16775;SDS011;8505;49.456;8.164;2022-10-03T11:23:05;7.68;;;2.50;;
16775;SDS011;8505;49.456;8.164;2022-10-03T11:26:20;7.93;;;2.35;;
16775;SDS011;8505;49.456;8.164;2022-10-03T11:29:23;7.28;;;2.20;;
16775;SDS011;8505;49.456;8.164;2022-10-03T11:35:31;7.33;;;2.23;;
16775;SDS011;8505;49.456;8.164;2022-10-03T11:38:24;8.15;;;2.67;;
16775;SDS011;8505;49.456;8.164;2022-10-03T11:40:57;7.40;;;2.60;;
16775;SDS011;8505;49.456;8.164;2022-10-03T11:43:39;7.50;;;2.80;;
16775;SDS011;8505;49.456;8.164;2022-10-03T11:46:33;9.20;;;3.70;;
16775;SDS011;8505;49.456;8.164;2022-10-03T11:49:25;8.55;;;2.65;;
16775;SDS011;8505;49.456;8.164;2022-10-03T11:52:17;8.70;;;2.30;;
16775;SDS011;8505;49.456;8.164;2022-10-03T11:55:00;9.10;;;2.13;;
16775;SDS011;8505;49.456;8.164;2022-10-03T11:57:35;6.05;;;2.03;;
16775;SDS011;8505;49.456;8.164;2022-10-03T12:00:08;7.18;;;2.30;;
16775;SDS011;8505;49.456;8.164;2022-10-03T12:05:42;6.80;;;2.08;;
16775;SDS011;8505;49.456;8.164;2022-10-03T12:08:19;8.50;;;3.00;;
16775;SDS011;8505;49.456;8.164;2022-10-03T12:11:13;8.73;;;2.20;;
16775;SDS011;8505;49.456;8.164;2022-10-03T12:13:57;8.10;;;2.05;;
16775;SDS011;8505;49.456;8.164;2022-10-03T12:16:47;8.10;;;2.20;;
16775;SDS011;8505;49.456;8.164;2022-10-03T12:19:26;6.80;;;2.20;;
16775;SDS011;8505;49.456;8.164;2022-10-03T12:21:59;7.23;;;2.20;;
16775;SDS011;8505;49.456;8.164;2022-10-03T12:24:39;7.80;;;2.30;;
16775;SDS011;8505;49.456;8.164;2022-10-03T12:27:12;6.32;;;2.08;;
16775;SDS011;8505;49.456;8.164;2022-10-03T12:29:52;6.90;;;2.33;;
16775;SDS011;8505;49.456;8.164;2022-10-03T12:32:31;5.70;;;2.45;;
16775;SDS011;8505;49.456;8.164;2022-10-03T12:35:15;7.15;;;2.60;;
16775;SDS011;8505;49.456;8.164;2022-10-03T12:38:04;8.20;;;2.47;;
16775;SDS011;8505;49.456;8.164;2022-10-03T12:40:44;7.45;;;2.70;;
16775;SDS011;8505;49.456;8.164;2022-10-03T12:43:22;6.03;;;2.30;;
16775;SDS011;8505;49.456;8.164;2022-10-03T12:46:01;6.28;;;2.47;;
16775;SDS011;8505;49.456;8.164;2022-10-03T12:48:38;8.30;;;2.37;;
16775;SDS011;8505;49.456;8.164;2022-10-03T12:51:16;7.75;;;2.28;;
16775;SDS011;8505;49.456;8.164;2022-10-03T12:53:51;7.75;;;2.10;;
16775;SDS011;8505;49.456;8.164;2022-10-03T12:56:32;5.22;;;2.03;;
16775;SDS011;8505;49.456;8.164;2022-10-03T12:59:13;6.57;;;2.17;;
16775;SDS011;8505;49.456;8.164;2022-10-03T13:01:54;6.53;;;2.20;;
16775;SDS011;8505;49.456;8.164;2022-10-03T13:04:39;7.78;;;2.20;;
16775;SDS011;8505;49.456;8.164;2022-10-03T13:07:15;5.82;;;2.65;;
16775;SDS011;8505;49.456;8.164;2022-10-03T13:09:55;6.28;;;2.20;;
16775;SDS011;8505;49.456;8.164;2022-10-03T13:12:32;5.85;;;2.25;;
16775;SDS011;8505;49.456;8.164;2022-10-03T13:18:22;6.35;;;2.20;;
16775;SDS011;8505;49.456;8.164;2022-10-03T13:21:04;6.28;;;2.10;;
16775;SDS011;8505;49.456;8.164;2022-10-03T13:23:57;6.38;;;2.10;;
16775;SDS011;8505;49.456;8.164;2022-10-03T13:26:37;7.03;;;2.03;;
16775;SDS011;8505;49.456;8.164;2022-10-03T13:29:18;7.22;;;2.30;;
16775;SDS011;8505;49.456;8.164;2022-10-03T13:31:53;6.18;;;2.00;;
16775;SDS011;8505;49.456;8.164;2022-10-03T13:34:30;6.25;;;2.60;;
16775;SDS011;8505;49.456;8.164;2022-10-03T13:37:04;7.78;;;2.88;;
16775;SDS011;8505;49.456;8.164;2022-10-03T13:39:40;9.10;;;2.63;;
16775;SDS011;8505;49.456;8.164;2022-10-03T13:42:15;7.15;;;2.63;;
16775;SDS011;8505;49.456;8.164;2022-10-03T13:44:48;6.68;;;2.50;;
16775;SDS011;8505;49.456;8.164;2022-10-03T13:47:24;6.25;;;2.30;;
16775;SDS011;8505;49.456;8.164;2022-10-03T13:49:57;6.15;;;2.13;;
16775;SDS011;8505;49.456;8.164;2022-10-03T13:52:32;6.03;;;2.05;;
16775;SDS011;8505;49.456;8.164;2022-10-03T13:55:09;5.87;;;2.20;;
16775;SDS011;8505;49.456;8.164;2022-10-03T13:57:45;5.67;;;2.00;;
16775;SDS011;8505;49.456;8.164;2022-10-03T14:00:23;7.93;;;2.42;;
16775;SDS011;8505;49.456;8.164;2022-10-03T14:02:59;6.13;;;2.10;;
16775;SDS011;8505;49.456;8.164;2022-10-03T14:08:44;8.77;;;4.25;;
16775;SDS011;8505;49.456;8.164;2022-10-03T14:11:24;11.75;;;4.55;;
16775;SDS011;8505;49.456;8.164;2022-10-03T14:14:14;8.70;;;3.58;;
16775;SDS011;8505;49.456;8.164;2022-10-03T14:16:55;10.60;;;4.28;;
16775;SDS011;8505;49.456;8.164;2022-10-03T14:19:30;9.05;;;4.50;;
16775;SDS011;8505;49.456;8.164;2022-10-03T14:22:09;7.15;;;2.80;;
16775;SDS011;8505;49.456;8.164;2022-10-03T14:27:42;7.82;;;3.17;;
16775;SDS011;8505;49.456;8.164;2022-10-03T14:30:15;7.55;;;4.18;;
16775;SDS011;8505;49.456;8.164;2022-10-03T14:32:46;10.03;;;4.03;;
16775;SDS011;8505;49.456;8.164;2022-10-03T14:35:32;13.48;;;6.85;;
16775;SDS011;8505;49.456;8.164;2022-10-03T14:38:11;9.20;;;3.92;;
16775;SDS011;8505;49.456;8.164;2022-10-03T14:40:46;10.48;;;5.63;;
16775;SDS011;8505;49.456;8.164;2022-10-03T14:43:23;16.52;;;9.95;;
16775;SDS011;8505;49.456;8.164;2022-10-03T14:46:00;11.25;;;6.97;;
16775;SDS011;8505;49.456;8.164;2022-10-03T14:48:33;7.88;;;3.92;;
16775;SDS011;8505;49.456;8.164;2022-10-03T14:51:07;8.90;;;3.60;;
16775;SDS011;8505;49.456;8.164;2022-10-03T14:53:44;8.63;;;3.10;;
16775;SDS011;8505;49.456;8.164;2022-10-03T14:56:13;14.63;;;7.13;;
16775;SDS011;8505;49.456;8.164;2022-10-03T14:58:49;15.90;;;9.35;;
16775;SDS011;8505;49.456;8.164;2022-10-03T15:01:19;12.68;;;5.72;;
16775;SDS011;8505;49.456;8.164;2022-10-03T15:03:56;17.05;;;10.05;;
16775;SDS011;8505;49.456;8.164;2022-10-03T15:09:20;22.45;;;14.52;;
16775;SDS011;8505;49.456;8.164;2022-10-03T15:11:51;11.63;;;5.32;;
16775;SDS011;8505;49.456;8.164;2022-10-03T15:14:25;12.52;;;6.15;;
16775;SDS011;8505;49.456;8.164;2022-10-03T15:16:56;8.13;;;3.75;;
16775;SDS011;8505;49.456;8.164;2022-10-03T15:19:27;12.50;;;6.13;;
16775;SDS011;8505;49.456;8.164;2022-10-03T15:22:03;10.00;;;4.20;;
16775;SDS011;8505;49.456;8.164;2022-10-03T15:24:37;19.42;;;10.07;;
16775;SDS011;8505;49.456;8.164;2022-10-03T15:27:08;11.02;;;5.50;;
16775;SDS011;8505;49.456;8.164;2022-10-03T15:29:46;11.70;;;5.38;;
16775;SDS011;8505;49.456;8.164;2022-10-03T15:32:19;11.38;;;5.72;;
16775;SDS011;8505;49.456;8.164;2022-10-03T15:34:54;7.20;;;3.72;;
16775;SDS011;8505;49.456;8.164;2022-10-03T15:37:26;11.35;;;4.50;;
16775;SDS011;8505;49.456;8.164;2022-10-03T15:40:02;9.00;;;4.50;;
16775;SDS011;8505;49.456;8.164;2022-10-03T15:42:42;25.42;;;15.98;;
16775;SDS011;8505;49.456;8.164;2022-10-03T15:45:20;15.48;;;8.15;;
16775;SDS011;8505;49.456;8.164;2022-10-03T15:47:54;12.63;;;7.25;;
16775;SDS011;8505;49.456;8.164;2022-10-03T15:50:25;12.02;;;6.03;;
16775;SDS011;8505;49.456;8.164;2022-10-03T15:52:56;18.83;;;10.38;;
16775;SDS011;8505;49.456;8.164;2022-10-03T15:55:48;13.80;;;7.90;;
16775;SDS011;8505;49.456;8.164;2022-10-03T15:58:18;7.40;;;3.97;;
16775;SDS011;8505;49.456;8.164;2022-10-03T16:00:53;10.57;;;4.85;;
16775;SDS011;8505;49.456;8.164;2022-10-03T16:03:32;7.73;;;5.47;;
16775;SDS011;8505;49.456;8.164;2022-10-03T16:06:07;9.60;;;4.88;;
16775;SDS011;8505;49.456;8.164;2022-10-03T16:08:43;6.80;;;3.72;;
16775;SDS011;8505;49.456;8.164;2022-10-03T16:11:23;10.18;;;3.83;;
16775;SDS011;8505;49.456;8.164;2022-10-03T16:13:57;8.30;;;3.90;;
16775;SDS011;8505;49.456;8.164;2022-10-03T16:16:38;9.77;;;4.45;;
16775;SDS011;8505;49.456;8.164;2022-10-03T16:22:10;159.02;;;74.43;;
16775;SDS011;8505;49.456;8.164;2022-10-03T16:24:45;89.22;;;54.47;;
16775;SDS011;8505;49.456;8.164;2022-10-03T16:27:17;37.20;;;20.83;;
16775;SDS011;8505;49.456;8.164;2022-10-03T16:29:50;70.80;;;38.60;;
16775;SDS011;8505;49.456;8.164;2022-10-03T16:32:22;44.03;;;22.63;;
16775;SDS011;8505;49.456;8.164;2022-10-03T16:34:53;58.30;;;30.00;;
16775;SDS011;8505;49.456;8.164;2022-10-03T16:37:27;18.20;;;7.78;;
16775;SDS011;8505;49.456;8.164;2022-10-03T16:39:58;13.88;;;5.30;;
16775;SDS011;8505;49.456;8.164;2022-10-03T16:42:34;12.13;;;6.38;;
16775;SDS011;8505;49.456;8.164;2022-10-03T16:45:07;13.43;;;4.70;;
16775;SDS011;8505;49.456;8.164;2022-10-03T16:47:49;10.93;;;4.38;;
16775;SDS011;8505;49.456;8.164;2022-10-03T16:50:33;14.75;;;4.90;;
16775;SDS011;8505;49.456;8.164;2022-10-03T16:53:06;9.80;;;4.20;;
16775;SDS011;8505;49.456;8.164;2022-10-03T16:55:38;11.75;;;4.75;;
16775;SDS011;8505;49.456;8.164;2022-10-03T16:58:14;11.38;;;5.00;;
16775;SDS011;8505;49.456;8.164;2022-10-03T17:00:49;9.48;;;4.50;;
16775;SDS011;8505;49.456;8.164;2022-10-03T17:03:44;14.85;;;8.07;;
16775;SDS011;8505;49.456;8.164;2022-10-03T17:06:14;15.13;;;6.65;;
16775;SDS011;8505;49.456;8.164;2022-10-03T17:08:47;10.30;;;6.20;;
16775;SDS011;8505;49.456;8.164;2022-10-03T17:11:19;12.95;;;7.40;;
16775;SDS011;8505;49.456;8.164;2022-10-03T17:13:51;20.48;;;7.35;;
16775;SDS011;8505;49.456;8.164;2022-10-03T17:16:23;16.45;;;9.65;;
16775;SDS011;8505;49.456;8.164;2022-10-03T17:19:04;20.55;;;10.15;;
16775;SDS011;8505;49.456;8.164;2022-10-03T17:21:41;36.95;;;20.33;;
16775;SDS011;8505;49.456;8.164;2022-10-03T17:24:19;26.73;;;13.93;;
16775;SDS011;8505;49.456;8.164;2022-10-03T17:26:56;17.70;;;7.85;;
16775;SDS011;8505;49.456;8.164;2022-10-03T17:29:29;14.27;;;7.20;;
16775;SDS011;8505;49.456;8.164;2022-10-03T17:32:00;16.55;;;7.78;;
16775;SDS011;8505;49.456;8.164;2022-10-03T17:34:38;15.13;;;6.75;;
16775;SDS011;8505;49.456;8.164;2022-10-03T17:37:12;14.77;;;6.15;;
16775;SDS011;8505;49.456;8.164;2022-10-03T17:39:52;12.43;;;5.90;;
16775;SDS011;8505;49.456;8.164;2022-10-03T17:42:29;15.38;;;6.40;;
16775;SDS011;8505;49.456;8.164;2022-10-03T17:45:21;15.38;;;6.80;;
16775;SDS011;8505;49.456;8.164;2022-10-03T17:47:59;14.77;;;6.90;;
16775;SDS011;8505;49.456;8.164;2022-10-03T17:50:36;14.60;;;6.95;;
16775;SDS011;8505;49.456;8.164;2022-10-03T17:53:17;16.45;;;7.18;;
16775;SDS011;8505;49.456;8.164;2022-10-03T17:55:49;15.48;;;7.13;;
16775;SDS011;8505;49.456;8.164;2022-10-03T17:58:20;15.33;;;6.40;;
16775;SDS011;8505;49.456;8.164;2022-10-03T18:03:27;15.80;;;5.40;;
16775;SDS011;8505;49.456;8.164;2022-10-03T18:06:01;17.75;;;7.90;;
16775;SDS011;8505;49.456;8.164;2022-10-03T18:08:51;15.60;;;7.43;;
16775;SDS011;8505;49.456;8.164;2022-10-03T18:11:20;16.63;;;8.07;;
16775;SDS011;8505;49.456;8.164;2022-10-03T18:13:50;18.30;;;7.90;;
16775;SDS011;8505;49.456;8.164;2022-10-03T18:16:29;15.77;;;7.05;;
16775;SDS011;8505;49.456;8.164;2022-10-03T18:19:16;15.45;;;7.35;;
16775;SDS011;8505;49.456;8.164;2022-10-03T18:21:55;15.95;;;7.03;;
16775;SDS011;8505;49.456;8.164;2022-10-03T18:24:36;16.85;;;7.28;;
16775;SDS011;8505;49.456;8.164;2022-10-03T18:27:25;15.00;;;7.25;;
16775;SDS011;8505;49.456;8.164;2022-10-03T18:30:11;16.10;;;7.55;;
16775;SDS011;8505;49.456;8.164;2022-10-03T18:32:41;17.00;;;8.23;;
16775;SDS011;8505;49.456;8.164;2022-10-03T18:35:11;14.93;;;7.18;;
16775;SDS011;8505;49.456;8.164;2022-10-03T18:37:48;17.75;;;7.55;;
16775;SDS011;8505;49.456;8.164;2022-10-03T18:40:33;19.83;;;8.13;;
16775;SDS011;8505;49.456;8.164;2022-10-03T18:43:14;17.33;;;7.75;;
16775;SDS011;8505;49.456;8.164;2022-10-03T18:45:49;17.63;;;8.43;;
16775;SDS011;8505;49.456;8.164;2022-10-03T18:48:24;16.07;;;7.90;;
16775;SDS011;8505;49.456;8.164;2022-10-03T18:50:58;16.70;;;7.65;;
16775;SDS011;8505;49.456;8.164;2022-10-03T18:53:36;15.90;;;7.73;;
16775;SDS011;8505;49.456;8.164;2022-10-03T18:56:11;17.02;;;7.53;;
16775;SDS011;8505;49.456;8.164;2022-10-03T18:58:44;20.55;;;8.57;;
16775;SDS011;8505;49.456;8.164;2022-10-03T19:01:21;15.48;;;7.65;;
16775;SDS011;8505;49.456;8.164;2022-10-03T19:03:56;18.45;;;7.78;;
16775;SDS011;8505;49.456;8.164;2022-10-03T19:06:27;16.00;;;8.75;;
16775;SDS011;8505;49.456;8.164;2022-10-03T19:08:59;17.10;;;7.97;;
16775;SDS011;8505;49.456;8.164;2022-10-03T19:11:36;17.80;;;8.40;;
16775;SDS011;8505;49.456;8.164;2022-10-03T19:14:09;19.58;;;8.57;;
16775;SDS011;8505;49.456;8.164;2022-10-03T19:17:06;20.77;;;8.43;;
16775;SDS011;8505;49.456;8.164;2022-10-03T19:19:51;18.63;;;8.45;;
16775;SDS011;8505;49.456;8.164;2022-10-03T19:22:26;18.77;;;8.48;;
16775;SDS011;8505;49.456;8.164;2022-10-03T19:24:57;21.83;;;7.97;;
16775;SDS011;8505;49.456;8.164;2022-10-03T19:27:40;19.05;;;7.82;;
16775;SDS011;8505;49.456;8.164;2022-10-03T19:30:16;17.35;;;8.15;;
16775;SDS011;8505;49.456;8.164;2022-10-03T19:32:48;18.67;;;8.13;;
16775;SDS011;8505;49.456;8.164;2022-10-03T19:35:23;17.60;;;7.53;;
16775;SDS011;8505;49.456;8.164;2022-10-03T19:37:52;14.90;;;7.57;;
16775;SDS011;8505;49.456;8.164;2022-10-03T19:40:31;15.07;;;6.20;;
16775;SDS011;8505;49.456;8.164;2022-10-03T19:43:25;13.50;;;5.60;;
16775;SDS011;8505;49.456;8.164;2022-10-03T19:46:06;20.80;;;5.50;;
16775;SDS011;8505;49.456;8.164;2022-10-03T19:48:50;12.80;;;5.53;;
16775;SDS011;8505;49.456;8.164;2022-10-03T19:51:23;12.73;;;4.47;;
16775;SDS011;8505;49.456;8.164;2022-10-03T19:53:53;18.33;;;8.35;;
16775;SDS011;8505;49.456;8.164;2022-10-03T19:56:23;19.73;;;8.43;;
16775;SDS011;8505;49.456;8.164;2022-10-03T19:58:58;18.95;;;8.20;;
16775;SDS011;8505;49.456;8.164;2022-10-03T20:01:33;16.55;;;7.97;;
16775;SDS011;8505;49.456;8.164;2022-10-03T20:04:08;16.10;;;8.00;;
16775;SDS011;8505;49.456;8.164;2022-10-03T20:06:38;15.80;;;7.60;;
16775;SDS011;8505;49.456;8.164;2022-10-03T20:09:17;14.18;;;8.10;;
16775;SDS011;8505;49.456;8.164;2022-10-03T20:11:49;16.65;;;8.10;;